Hawaii Volcanoes National Park, HI

8:23 PM HST on August 30, 2014 (GMT -1000)
Hilo International | Change Station
CLOSE
Current Station
Airport
Location: Hilo,
Elevation: 36 ft
Nearby Weather Stations

Elev 36 ft 19.72 °N, 155.05 °W | Updated 30 minutes ago

Mostly Cloudy
Mostly Cloudy
78 °F
Feels Like 78 °F
N
0
Wind Variable Wind from North

Today
High -- | Low -- °F
--% Chance of Precip.
Yesterday
High -- | Low -- °F
Precip. -- in
6:05 AM 6:37 PM
Waxing Crescent, 28% visible
Pressure 29.96 in
Visibility 10.0 miles
Clouds Mostly Cloudy 3500 ft
Dew Point 71 °F
Humidity 79%
Rainfall 0.00 in
Snow Depth Not available.
UV 0 out of 12
Pollen Not available.
Air Quality Not available.
Flu Activity Not available.
METAR PHTO 310553Z 00000KT 10SM BKN035 26/22 A2997 RMK AO2 SLP146 T02560217 10300 20256 51017 $

More Conditions Fewer Conditions

Pressure 29.96 in
Visibility 10.0 miles
Clouds Mostly Cloudy 3500 ft
Dew Point 71 °F
Humidity 79%
Rainfall 0.00 in
Snow Depth Not available.
UV 0 out of 12
Pollen Not available.
Air Quality Not available.
Flu Activity Not available.
METAR PHTO 310553Z 00000KT 10SM BKN035 26/22 A2997 RMK AO2 SLP146 T02560217 10300 20256 51017 $

More Conditions Fewer Conditions

10-Day Weather Forecast

Almanac

Astronomy

Aug. 30, 2014 Rise Set
Actual Time 6:05 AM HST 6:37 PM HST
Civil Twilight 5:43 AM HST 6:59 PM HST
Nautical Twilight 5:17 AM HST 7:25 PM HST
Astronomical Twilight 4:50 AM HST 7:52 PM HST
Moon 10:19 AM HST (8/30) 10:04 PM HST (8/30)
Length of Visible Light 13h 16m
Length of Day
12h 31m
Tomorrow will be 1m 3s shorter.
Waxing Crescent, 28% of the Moon is Illuminated
Aug 31
Waxing Crescent
Sep 2
First Quarter
Sep 8
Full
Sep 15
Last Quarter
Sep 24
New

Yesterday's Extremes

State Highs State Lows

Community

WunderPhotos

Upload Photos

1,748,801 photos uploaded!

Nearby

Snow Depth

Station Depth Elevation
No new snow has been reported.

Earthquake Activity

City Distance Mag. Time & Date
No recent earthquake activity has been reported nearby.
Minimum magnitude displayed is 2.5.

Coastal Water Temperatures

Place Temperature
No Stations Reporting

Nearby Weather Stations